sensor_id;sensor_type;location;lat;lon;timestamp;pressure;altitude;pressure_sealevel;temperature;humidity
64230;BME280;50547;49.498;0.092;2023-02-13T00:01:33;1032.23;;;6.65;81.53
64230;BME280;50547;49.498;0.092;2023-02-13T00:04:02;1032.21;;;6.66;81.42
64230;BME280;50547;49.498;0.092;2023-02-13T00:06:31;1032.19;;;6.59;81.72
64230;BME280;50547;49.498;0.092;2023-02-13T00:09:01;1032.17;;;6.61;81.61
64230;BME280;50547;49.498;0.092;2023-02-13T00:11:30;1032.15;;;6.60;81.58
64230;BME280;50547;49.498;0.092;2023-02-13T00:13:59;1032.17;;;6.62;81.53
64230;BME280;50547;49.498;0.092;2023-02-13T00:16:28;1032.19;;;6.54;81.77
64230;BME280;50547;49.498;0.092;2023-02-13T00:18:57;1032.19;;;6.62;81.36
64230;BME280;50547;49.498;0.092;2023-02-13T00:21:26;1032.24;;;6.67;81.15
64230;BME280;50547;49.498;0.092;2023-02-13T00:23:55;1032.21;;;6.73;80.82
64230;BME280;50547;49.498;0.092;2023-02-13T00:26:24;1032.17;;;6.66;81.22
64230;BME280;50547;49.498;0.092;2023-02-13T00:28:55;1032.13;;;6.64;81.26
64230;BME280;50547;49.498;0.092;2023-02-13T00:31:24;1032.15;;;6.65;81.16
64230;BME280;50547;49.498;0.092;2023-02-13T00:33:53;1032.15;;;6.66;81.13
64230;BME280;50547;49.498;0.092;2023-02-13T00:36:22;1032.15;;;6.70;80.85
64230;BME280;50547;49.498;0.092;2023-02-13T00:38:52;1032.09;;;6.66;80.93
64230;BME280;50547;49.498;0.092;2023-02-13T00:41:22;1032.07;;;6.56;81.44
64230;BME280;50547;49.498;0.092;2023-02-13T00:43:51;1032.07;;;6.48;81.85
64230;BME280;50547;49.498;0.092;2023-02-13T00:46:20;1031.99;;;6.49;81.65
64230;BME280;50547;49.498;0.092;2023-02-13T00:48:49;1032.01;;;6.50;81.51
64230;BME280;50547;49.498;0.092;2023-02-13T00:51:18;1031.99;;;6.47;81.72
64230;BME280;50547;49.498;0.092;2023-02-13T00:53:47;1031.97;;;6.46;81.62
64230;BME280;50547;49.498;0.092;2023-02-13T00:56:17;1031.93;;;6.34;82.13
64230;BME280;50547;49.498;0.092;2023-02-13T00:58:46;1031.95;;;6.32;82.25
64230;BME280;50547;49.498;0.092;2023-02-13T01:01:15;1031.97;;;6.28;82.31
64230;BME280;50547;49.498;0.092;2023-02-13T01:03:44;1031.93;;;6.30;81.96
64230;BME280;50547;49.498;0.092;2023-02-13T01:06:13;1031.95;;;6.30;81.92
64230;BME280;50547;49.498;0.092;2023-02-13T01:08:42;1031.93;;;6.33;81.76
64230;BME280;50547;49.498;0.092;2023-02-13T01:11:11;1031.91;;;6.19;82.33
64230;BME280;50547;49.498;0.092;2023-02-13T01:13:40;1031.89;;;6.23;82.13
64230;BME280;50547;49.498;0.092;2023-02-13T01:16:10;1031.85;;;6.19;82.19
64230;BME280;50547;49.498;0.092;2023-02-13T01:18:39;1031.81;;;6.11;82.58
64230;BME280;50547;49.498;0.092;2023-02-13T01:21:15;1031.76;;;6.12;82.52
64230;BME280;50547;49.498;0.092;2023-02-13T01:23:45;1031.76;;;6.04;82.84
64230;BME280;50547;49.498;0.092;2023-02-13T01:26:16;1031.79;;;6.04;82.79
64230;BME280;50547;49.498;0.092;2023-02-13T01:28:46;1031.76;;;6.06;82.62
64230;BME280;50547;49.498;0.092;2023-02-13T01:31:15;1031.77;;;5.99;82.84
64230;BME280;50547;49.498;0.092;2023-02-13T01:33:45;1031.76;;;5.98;82.92
64230;BME280;50547;49.498;0.092;2023-02-13T01:36:14;1031.76;;;5.99;82.77
64230;BME280;50547;49.498;0.092;2023-02-13T01:38:43;1031.72;;;5.95;82.96
64230;BME280;50547;49.498;0.092;2023-02-13T01:41:12;1031.74;;;5.94;82.94
64230;BME280;50547;49.498;0.092;2023-02-13T01:43:45;1031.77;;;5.85;83.41
64230;BME280;50547;49.498;0.092;2023-02-13T01:46:25;1031.79;;;5.85;83.36
64230;BME280;50547;49.498;0.092;2023-02-13T01:48:58;1031.79;;;5.86;83.17
64230;BME280;50547;49.498;0.092;2023-02-13T01:51:31;1031.76;;;5.83;83.23
64230;BME280;50547;49.498;0.092;2023-02-13T01:54:05;1031.76;;;5.88;82.94
64230;BME280;50547;49.498;0.092;2023-02-13T01:56:37;1031.76;;;5.84;83.12
64230;BME280;50547;49.498;0.092;2023-02-13T01:59:11;1031.76;;;5.80;83.23
64230;BME280;50547;49.498;0.092;2023-02-13T02:01:41;1031.72;;;5.82;83.07
64230;BME280;50547;49.498;0.092;2023-02-13T02:04:14;1031.76;;;5.80;83.31
64230;BME280;50547;49.498;0.092;2023-02-13T02:06:47;1031.70;;;5.78;83.34
64230;BME280;50547;49.498;0.092;2023-02-13T02:09:19;1031.76;;;5.85;83.01
64230;BME280;50547;49.498;0.092;2023-02-13T02:11:55;1031.77;;;5.89;82.84
64230;BME280;50547;49.498;0.092;2023-02-13T02:14:27;1031.68;;;5.93;82.63
64230;BME280;50547;49.498;0.092;2023-02-13T02:16:56;1031.68;;;5.89;82.87
64230;BME280;50547;49.498;0.092;2023-02-13T02:19:34;1031.68;;;5.88;82.97
64230;BME280;50547;49.498;0.092;2023-02-13T02:22:51;1031.66;;;5.90;82.89
64230;BME280;50547;49.498;0.092;2023-02-13T02:25:43;1031.66;;;5.82;83.18
64230;BME280;50547;49.498;0.092;2023-02-13T02:28:28;1031.62;;;5.80;83.30
64230;BME280;50547;49.498;0.092;2023-02-13T02:31:18;1031.56;;;5.77;83.51
64230;BME280;50547;49.498;0.092;2023-02-13T02:34:03;1031.54;;;5.74;83.67
64230;BME280;50547;49.498;0.092;2023-02-13T02:36:48;1031.56;;;5.67;83.99
64230;BME280;50547;49.498;0.092;2023-02-13T02:39:28;1031.48;;;5.64;84.14
64230;BME280;50547;49.498;0.092;2023-02-13T02:42:06;1031.50;;;5.63;84.14
64230;BME280;50547;49.498;0.092;2023-02-13T02:44:41;1031.48;;;5.61;84.26
64230;BME280;50547;49.498;0.092;2023-02-13T02:47:20;1031.50;;;5.63;84.09
64230;BME280;50547;49.498;0.092;2023-02-13T02:49:59;1031.48;;;5.51;84.73
64230;BME280;50547;49.498;0.092;2023-02-13T02:52:40;1031.44;;;5.44;85.08
64230;BME280;50547;49.498;0.092;2023-02-13T02:55:18;1031.42;;;5.42;85.01
64230;BME280;50547;49.498;0.092;2023-02-13T02:57:55;1031.36;;;5.50;84.28
64230;BME280;50547;49.498;0.092;2023-02-13T03:00:28;1031.32;;;5.45;84.62
64230;BME280;50547;49.498;0.092;2023-02-13T03:02:59;1031.23;;;5.45;84.56
64230;BME280;50547;49.498;0.092;2023-02-13T03:05:31;1031.27;;;5.42;84.82
64230;BME280;50547;49.498;0.092;2023-02-13T03:07:57;1031.32;;;5.40;84.87
64230;BME280;50547;49.498;0.092;2023-02-13T03:10:30;1031.34;;;5.41;84.86
64230;BME280;50547;49.498;0.092;2023-02-13T03:13:04;1031.30;;;5.43;84.75
64230;BME280;50547;49.498;0.092;2023-02-13T03:15:37;1031.30;;;5.48;84.38
64230;BME280;50547;49.498;0.092;2023-02-13T03:18:08;1031.29;;;5.48;84.31
64230;BME280;50547;49.498;0.092;2023-02-13T03:20:42;1031.25;;;5.33;85.15
64230;BME280;50547;49.498;0.092;2023-02-13T03:23:14;1031.23;;;5.23;85.65
64230;BME280;50547;49.498;0.092;2023-02-13T03:25:57;1031.08;;;5.13;86.06
64230;BME280;50547;49.498;0.092;2023-02-13T03:28:35;1031.08;;;5.17;85.81
64230;BME280;50547;49.498;0.092;2023-02-13T03:31:11;1031.14;;;5.19;85.63
64230;BME280;50547;49.498;0.092;2023-02-13T03:33:55;1031.06;;;5.24;85.44
64230;BME280;50547;49.498;0.092;2023-02-13T03:36:32;1030.98;;;5.16;85.99
64230;BME280;50547;49.498;0.092;2023-02-13T03:39:08;1031.00;;;5.19;85.98
64230;BME280;50547;49.498;0.092;2023-02-13T03:41:42;1031.06;;;5.31;85.63
64230;BME280;50547;49.498;0.092;2023-02-13T03:44:18;1031.00;;;5.39;85.42
64230;BME280;50547;49.498;0.092;2023-02-13T03:46:52;1030.94;;;5.44;85.35
64230;BME280;50547;49.498;0.092;2023-02-13T03:49:26;1030.96;;;5.50;85.18
64230;BME280;50547;49.498;0.092;2023-02-13T03:51:59;1030.96;;;5.54;84.99
64230;BME280;50547;49.498;0.092;2023-02-13T03:54:36;1030.92;;;5.57;84.83
64230;BME280;50547;49.498;0.092;2023-02-13T03:57:07;1030.88;;;5.56;84.91
64230;BME280;50547;49.498;0.092;2023-02-13T03:59:36;1030.86;;;5.52;85.10
64230;BME280;50547;49.498;0.092;2023-02-13T04:02:09;1030.98;;;5.52;85.16
64230;BME280;50547;49.498;0.092;2023-02-13T04:04:45;1031.06;;;5.61;84.83
64230;BME280;50547;49.498;0.092;2023-02-13T04:07:18;1031.14;;;5.61;84.76
64230;BME280;50547;49.498;0.092;2023-02-13T04:09:54;1031.10;;;5.61;84.95
64230;BME280;50547;49.498;0.092;2023-02-13T04:12:31;1031.02;;;5.66;84.82
64230;BME280;50547;49.498;0.092;2023-02-13T04:15:07;1031.04;;;5.65;84.90
64230;BME280;50547;49.498;0.092;2023-02-13T04:17:42;1031.12;;;5.65;84.88
64230;BME280;50547;49.498;0.092;2023-02-13T04:20:13;1031.25;;;5.67;84.76
64230;BME280;50547;49.498;0.092;2023-02-13T04:22:44;1031.29;;;5.69;84.62
64230;BME280;50547;49.498;0.092;2023-02-13T04:25:15;1031.14;;;5.71;84.54
64230;BME280;50547;49.498;0.092;2023-02-13T04:27:45;1031.27;;;5.76;84.33
64230;BME280;50547;49.498;0.092;2023-02-13T04:30:14;1031.14;;;5.75;84.46
64230;BME280;50547;49.498;0.092;2023-02-13T04:32:43;1031.23;;;5.74;84.55
64230;BME280;50547;49.498;0.092;2023-02-13T04:35:12;1031.10;;;5.76;84.38
64230;BME280;50547;49.498;0.092;2023-02-13T04:37:41;1031.25;;;5.78;84.25
64230;BME280;50547;49.498;0.092;2023-02-13T04:40:11;1031.30;;;5.87;83.88
64230;BME280;50547;49.498;0.092;2023-02-13T04:42:40;1031.36;;;5.91;83.69
64230;BME280;50547;49.498;0.092;2023-02-13T04:45:09;1031.38;;;5.96;83.53
64230;BME280;50547;49.498;0.092;2023-02-13T04:47:38;1031.40;;;5.99;83.42
64230;BME280;50547;49.498;0.092;2023-02-13T04:50:07;1031.40;;;5.96;83.50
64230;BME280;50547;49.498;0.092;2023-02-13T04:52:36;1031.36;;;5.95;83.54
64230;BME280;50547;49.498;0.092;2023-02-13T04:55:06;1031.32;;;5.91;83.86
64230;BME280;50547;49.498;0.092;2023-02-13T04:57:35;1031.32;;;5.93;83.69
64230;BME280;50547;49.498;0.092;2023-02-13T05:00:06;1031.32;;;5.86;83.93
64230;BME280;50547;49.498;0.092;2023-02-13T05:02:35;1031.30;;;5.89;83.75
64230;BME280;50547;49.498;0.092;2023-02-13T05:05:04;1031.34;;;5.86;83.77
64230;BME280;50547;49.498;0.092;2023-02-13T05:07:33;1031.34;;;5.81;83.96
64230;BME280;50547;49.498;0.092;2023-02-13T05:10:03;1031.38;;;5.71;84.55
64230;BME280;50547;49.498;0.092;2023-02-13T05:12:32;1031.46;;;5.65;84.68
64230;BME280;50547;49.498;0.092;2023-02-13T05:15:01;1031.48;;;5.68;84.46
64230;BME280;50547;49.498;0.092;2023-02-13T05:17:31;1031.46;;;5.69;84.28
64230;BME280;50547;49.498;0.092;2023-02-13T05:20:00;1031.46;;;5.69;84.16
64230;BME280;50547;49.498;0.092;2023-02-13T05:22:29;1031.40;;;5.71;84.06
64230;BME280;50547;49.498;0.092;2023-02-13T05:24:58;1031.40;;;5.69;84.09
64230;BME280;50547;49.498;0.092;2023-02-13T05:27:27;1031.40;;;5.76;83.67
64230;BME280;50547;49.498;0.092;2023-02-13T05:29:56;1031.38;;;5.78;83.59
64230;BME280;50547;49.498;0.092;2023-02-13T05:32:25;1031.32;;;5.78;83.60
64230;BME280;50547;49.498;0.092;2023-02-13T05:34:54;1031.40;;;5.79;83.56
64230;BME280;50547;49.498;0.092;2023-02-13T05:37:23;1031.40;;;5.75;83.83
64230;BME280;50547;49.498;0.092;2023-02-13T05:39:52;1031.44;;;5.69;83.93
64230;BME280;50547;49.498;0.092;2023-02-13T05:42:21;1031.44;;;5.65;84.11
64230;BME280;50547;49.498;0.092;2023-02-13T05:44:50;1031.46;;;5.66;84.11
64230;BME280;50547;49.498;0.092;2023-02-13T13:22:53;1030.08;;;16.01;53.93
64230;BME280;50547;49.498;0.092;2023-02-13T13:25:33;1030.02;;;16.06;53.76
64230;BME280;50547;49.498;0.092;2023-02-13T13:28:12;1030.10;;;16.18;53.24
64230;BME280;50547;49.498;0.092;2023-02-13T13:30:43;1030.06;;;16.70;51.40
64230;BME280;50547;49.498;0.092;2023-02-13T13:33:15;1030.00;;;16.91;51.11
64230;BME280;50547;49.498;0.092;2023-02-13T13:35:52;1030.02;;;16.87;51.03
64230;BME280;50547;49.498;0.092;2023-02-13T13:38:33;1030.04;;;16.90;51.35
64230;BME280;50547;49.498;0.092;2023-02-13T13:41:12;1030.06;;;17.04;51.13
64230;BME280;50547;49.498;0.092;2023-02-13T13:43:56;1029.90;;;17.46;49.41
64230;BME280;50547;49.498;0.092;2023-02-13T13:46:38;1029.92;;;17.54;49.30
64230;BME280;50547;49.498;0.092;2023-02-13T13:49:19;1029.92;;;17.86;48.29
64230;BME280;50547;49.498;0.092;2023-02-13T13:51:52;1029.89;;;17.88;48.63
64230;BME280;50547;49.498;0.092;2023-02-13T13:54:31;1029.81;;;18.00;48.30
64230;BME280;50547;49.498;0.092;2023-02-13T13:57:06;1029.83;;;18.12;47.72
64230;BME280;50547;49.498;0.092;2023-02-13T14:00:33;1029.81;;;18.38;47.67
64230;BME280;50547;49.498;0.092;2023-02-13T14:03:35;1029.75;;;18.27;47.74
64230;BME280;50547;49.498;0.092;2023-02-13T14:06:06;1029.73;;;18.37;47.80
64230;BME280;50547;49.498;0.092;2023-02-13T14:09:37;1029.69;;;18.09;48.20
64230;BME280;50547;49.498;0.092;2023-02-13T14:12:48;1029.67;;;18.00;48.32
64230;BME280;50547;49.498;0.092;2023-02-13T14:15:51;1029.65;;;18.35;47.10
64230;BME280;50547;49.498;0.092;2023-02-13T14:18:21;1029.67;;;18.40;46.86
64230;BME280;50547;49.498;0.092;2023-02-13T14:20:52;1029.69;;;18.31;46.57
64230;BME280;50547;49.498;0.092;2023-02-13T14:23:32;1029.69;;;18.59;46.13
64230;BME280;50547;49.498;0.092;2023-02-13T14:26:12;1029.71;;;19.00;45.54
64230;BME280;50547;49.498;0.092;2023-02-13T14:28:57;1029.69;;;19.04;44.47
64230;BME280;50547;49.498;0.092;2023-02-13T14:31:30;1029.67;;;18.99;44.82
64230;BME280;50547;49.498;0.092;2023-02-13T14:34:03;1029.65;;;19.12;44.90
64230;BME280;50547;49.498;0.092;2023-02-13T14:36:35;1029.59;;;19.13;44.27
64230;BME280;50547;49.498;0.092;2023-02-13T14:39:07;1029.59;;;19.21;44.31
64230;BME280;50547;49.498;0.092;2023-02-13T14:41:57;1029.61;;;19.35;44.31
64230;BME280;50547;49.498;0.092;2023-02-13T14:44:31;1029.55;;;19.26;44.46
64230;BME280;50547;49.498;0.092;2023-02-13T14:47:04;1029.63;;;18.97;45.51
64230;BME280;50547;49.498;0.092;2023-02-13T14:49:41;1029.57;;;19.36;44.13
64230;BME280;50547;49.498;0.092;2023-02-13T14:52:16;1029.53;;;19.30;44.15
64230;BME280;50547;49.498;0.092;2023-02-13T14:54:49;1029.53;;;19.75;43.34
64230;BME280;50547;49.498;0.092;2023-02-13T14:57:22;1029.57;;;19.85;42.64
64230;BME280;50547;49.498;0.092;2023-02-13T14:59:56;1029.61;;;19.79;43.42
64230;BME280;50547;49.498;0.092;2023-02-13T15:02:29;1029.53;;;19.78;43.46
64230;BME280;50547;49.498;0.092;2023-02-13T15:05:03;1029.55;;;19.81;43.59
64230;BME280;50547;49.498;0.092;2023-02-13T15:07:35;1029.53;;;19.78;43.89
64230;BME280;50547;49.498;0.092;2023-02-13T15:10:23;1029.51;;;19.76;43.17
64230;BME280;50547;49.498;0.092;2023-02-13T15:12:57;1029.53;;;20.02;43.47
64230;BME280;50547;49.498;0.092;2023-02-13T15:15:28;1029.55;;;19.46;46.11
64230;BME280;50547;49.498;0.092;2023-02-13T15:18:00;1029.57;;;18.92;47.56
64230;BME280;50547;49.498;0.092;2023-02-13T15:20:32;1029.53;;;18.82;47.67
64230;BME280;50547;49.498;0.092;2023-02-13T15:23:04;1029.53;;;18.95;46.82
64230;BME280;50547;49.498;0.092;2023-02-13T15:25:36;1029.51;;;18.63;47.93
64230;BME280;50547;49.498;0.092;2023-02-13T15:28:07;1029.49;;;17.94;51.26
64230;BME280;50547;49.498;0.092;2023-02-13T15:30:52;1029.51;;;17.93;51.24
64230;BME280;50547;49.498;0.092;2023-02-13T15:33:23;1029.51;;;18.10;50.18
64230;BME280;50547;49.498;0.092;2023-02-13T15:35:56;1029.49;;;17.76;51.32
64230;BME280;50547;49.498;0.092;2023-02-13T15:38:27;1029.55;;;17.84;50.94
64230;BME280;50547;49.498;0.092;2023-02-13T15:40:59;1029.53;;;17.96;50.12
64230;BME280;50547;49.498;0.092;2023-02-13T15:43:33;1029.49;;;17.96;50.07
64230;BME280;50547;49.498;0.092;2023-02-13T15:46:05;1029.47;;;18.06;50.14
64230;BME280;50547;49.498;0.092;2023-02-13T15:48:34;1029.47;;;18.21;49.15
64230;BME280;50547;49.498;0.092;2023-02-13T15:51:04;1029.45;;;18.40;48.87
64230;BME280;50547;49.498;0.092;2023-02-13T15:53:33;1029.42;;;18.15;49.99
64230;BME280;50547;49.498;0.092;2023-02-13T15:56:11;1029.38;;;17.80;51.54
64230;BME280;50547;49.498;0.092;2023-02-13T15:58:41;1029.38;;;17.53;52.49
64230;BME280;50547;49.498;0.092;2023-02-13T16:01:11;1029.34;;;17.71;51.87
64230;BME280;50547;49.498;0.092;2023-02-13T16:03:42;1029.28;;;17.73;51.96
64230;BME280;50547;49.498;0.092;2023-02-13T16:06:13;1029.30;;;17.49;52.77
64230;BME280;50547;49.498;0.092;2023-02-13T16:08:44;1029.32;;;17.12;54.31
64230;BME280;50547;49.498;0.092;2023-02-13T16:11:19;1029.32;;;17.19;53.78
64230;BME280;50547;49.498;0.092;2023-02-13T16:13:57;1029.32;;;17.11;53.91
64230;BME280;50547;49.498;0.092;2023-02-13T16:16:30;1029.36;;;16.85;55.20
64230;BME280;50547;49.498;0.092;2023-02-13T16:19:01;1029.40;;;16.91;54.85
64230;BME280;50547;49.498;0.092;2023-02-13T16:21:30;1029.34;;;16.68;55.63
64230;BME280;50547;49.498;0.092;2023-02-13T16:24:01;1029.34;;;16.57;56.03
64230;BME280;50547;49.498;0.092;2023-02-13T16:26:33;1029.36;;;16.45;56.66
64230;BME280;50547;49.498;0.092;2023-02-13T16:29:08;1029.32;;;16.11;58.09
64230;BME280;50547;49.498;0.092;2023-02-13T16:31:39;1029.28;;;15.90;58.74
64230;BME280;50547;49.498;0.092;2023-02-13T16:34:24;1029.32;;;15.63;59.60
64230;BME280;50547;49.498;0.092;2023-02-13T16:36:55;1029.34;;;15.58;59.44
64230;BME280;50547;49.498;0.092;2023-02-13T16:39:27;1029.38;;;15.62;59.06
64230;BME280;50547;49.498;0.092;2023-02-13T16:41:54;1029.38;;;15.32;60.30
64230;BME280;50547;49.498;0.092;2023-02-13T16:44:25;1029.36;;;15.20;60.75
64230;BME280;50547;49.498;0.092;2023-02-13T16:46:56;1029.32;;;14.93;61.68
64230;BME280;50547;49.498;0.092;2023-02-13T16:49:28;1029.42;;;14.82;62.04
64230;BME280;50547;49.498;0.092;2023-02-13T16:52:00;1029.40;;;14.62;62.48
64230;BME280;50547;49.498;0.092;2023-02-13T16:54:36;1029.43;;;14.61;62.39
64230;BME280;50547;49.498;0.092;2023-02-13T16:57:18;1029.45;;;14.57;62.19
64230;BME280;50547;49.498;0.092;2023-02-13T16:59:51;1029.49;;;14.26;63.54
64230;BME280;50547;49.498;0.092;2023-02-13T17:02:23;1029.49;;;14.07;64.28
64230;BME280;50547;49.498;0.092;2023-02-13T17:04:55;1029.53;;;13.86;64.91
64230;BME280;50547;49.498;0.092;2023-02-13T17:07:23;1029.53;;;13.78;64.98
64230;BME280;50547;49.498;0.092;2023-02-13T17:09:56;1029.51;;;13.59;65.63
64230;BME280;50547;49.498;0.092;2023-02-13T17:12:28;1029.55;;;13.49;65.76
64230;BME280;50547;49.498;0.092;2023-02-13T17:14:58;1029.55;;;13.25;66.68
64230;BME280;50547;49.498;0.092;2023-02-13T17:17:27;1029.61;;;13.19;66.70
64230;BME280;50547;49.498;0.092;2023-02-13T17:19:57;1029.65;;;12.95;67.58
64230;BME280;50547;49.498;0.092;2023-02-13T17:22:30;1029.65;;;12.88;67.68
64230;BME280;50547;49.498;0.092;2023-02-13T17:25:02;1029.71;;;12.74;68.17
64230;BME280;50547;49.498;0.092;2023-02-13T17:27:32;1029.73;;;12.65;68.26
64230;BME280;50547;49.498;0.092;2023-02-13T17:30:02;1029.85;;;12.53;68.63
64230;BME280;50547;49.498;0.092;2023-02-13T17:32:31;1029.79;;;12.49;68.65
64230;BME280;50547;49.498;0.092;2023-02-13T17:35:00;1029.83;;;12.43;68.74
64230;BME280;50547;49.498;0.092;2023-02-13T17:37:26;1029.90;;;12.39;68.84
64230;BME280;50547;49.498;0.092;2023-02-13T17:39:55;1029.92;;;12.29;69.24
64230;BME280;50547;49.498;0.092;2023-02-13T17:42:26;1029.94;;;12.19;69.70
64230;BME280;50547;49.498;0.092;2023-02-13T17:44:57;1029.98;;;12.10;69.95
64230;BME280;50547;49.498;0.092;2023-02-13T17:47:26;1029.96;;;12.09;69.89
64230;BME280;50547;49.498;0.092;2023-02-13T17:49:55;1030.00;;;12.02;70.19
64230;BME280;50547;49.498;0.092;2023-02-13T17:52:26;1029.98;;;11.98;70.37
64230;BME280;50547;49.498;0.092;2023-02-13T17:54:56;1030.02;;;11.94;70.51
64230;BME280;50547;49.498;0.092;2023-02-13T17:57:25;1030.00;;;11.93;70.46
64230;BME280;50547;49.498;0.092;2023-02-13T17:59:54;1029.94;;;11.88;70.59
64230;BME280;50547;49.498;0.092;2023-02-13T18:02:23;1030.00;;;11.86;70.64
64230;BME280;50547;49.498;0.092;2023-02-13T18:04:52;1030.00;;;11.75;71.24
64230;BME280;50547;49.498;0.092;2023-02-13T18:07:21;1030.00;;;11.72;71.36
64230;BME280;50547;49.498;0.092;2023-02-13T18:09:50;1030.04;;;11.63;71.80
64230;BME280;50547;49.498;0.092;2023-02-13T18:12:24;1030.02;;;11.66;71.47
64230;BME280;50547;49.498;0.092;2023-02-13T18:14:53;1029.98;;;11.65;71.44
64230;BME280;50547;49.498;0.092;2023-02-13T18:17:22;1029.98;;;11.58;71.77
64230;BME280;50547;49.498;0.092;2023-02-13T18:19:51;1029.94;;;11.51;72.13
64230;BME280;50547;49.498;0.092;2023-02-13T18:22:20;1029.98;;;11.50;72.07
64230;BME280;50547;49.498;0.092;2023-02-13T18:24:49;1030.04;;;11.47;72.01
64230;BME280;50547;49.498;0.092;2023-02-13T18:27:19;1030.04;;;11.33;72.69
64230;BME280;50547;49.498;0.092;2023-02-13T18:29:48;1030.06;;;11.40;72.17
64230;BME280;50547;49.498;0.092;2023-02-13T18:32:17;1030.08;;;11.45;71.80
64230;BME280;50547;49.498;0.092;2023-02-13T18:34:46;1030.02;;;11.33;72.56
64230;BME280;50547;49.498;0.092;2023-02-13T18:37:15;1030.00;;;11.29;72.72
64230;BME280;50547;49.498;0.092;2023-02-13T18:39:45;1030.02;;;11.26;72.80
64230;BME280;50547;49.498;0.092;2023-02-13T18:42:14;1030.00;;;11.27;72.89
64230;BME280;50547;49.498;0.092;2023-02-13T18:44:43;1030.00;;;11.23;72.95
64230;BME280;50547;49.498;0.092;2023-02-13T18:47:12;1030.00;;;11.20;73.01
64230;BME280;50547;49.498;0.092;2023-02-13T18:49:41;1030.06;;;11.17;73.17
64230;BME280;50547;49.498;0.092;2023-02-13T18:52:10;1030.18;;;11.11;73.43
64230;BME280;50547;49.498;0.092;2023-02-13T18:54:39;1030.24;;;11.11;73.33
64230;BME280;50547;49.498;0.092;2023-02-13T18:57:08;1030.22;;;11.09;73.25
64230;BME280;50547;49.498;0.092;2023-02-13T18:59:37;1030.22;;;11.10;73.28
64230;BME280;50547;49.498;0.092;2023-02-13T19:02:07;1030.24;;;11.07;73.31
64230;BME280;50547;49.498;0.092;2023-02-13T19:07:02;1030.20;;;10.94;73.73
64230;BME280;50547;49.498;0.092;2023-02-13T19:09:31;1030.22;;;10.93;73.77
64230;BME280;50547;49.498;0.092;2023-02-13T19:12:00;1030.22;;;10.91;73.69
64230;BME280;50547;49.498;0.092;2023-02-13T19:14:29;1030.32;;;10.89;73.72
64230;BME280;50547;49.498;0.092;2023-02-13T19:16:58;1030.30;;;10.83;73.99
64230;BME280;50547;49.498;0.092;2023-02-13T19:19:27;1030.32;;;10.89;73.69
64230;BME280;50547;49.498;0.092;2023-02-13T19:21:56;1030.34;;;10.97;73.08
64230;BME280;50547;49.498;0.092;2023-02-13T19:24:25;1030.32;;;10.87;73.71
64230;BME280;50547;49.498;0.092;2023-02-13T19:26:55;1030.37;;;10.74;74.39
64230;BME280;50547;49.498;0.092;2023-02-13T19:29:24;1030.43;;;10.74;74.28
64230;BME280;50547;49.498;0.092;2023-02-13T19:31:53;1030.45;;;10.68;74.44
64230;BME280;50547;49.498;0.092;2023-02-13T19:34:22;1030.43;;;10.75;73.97
64230;BME280;50547;49.498;0.092;2023-02-13T19:36:51;1030.47;;;10.69;74.24
64230;BME280;50547;49.498;0.092;2023-02-13T19:39:20;1030.51;;;10.61;74.68
64230;BME280;50547;49.498;0.092;2023-02-13T19:41:49;1030.51;;;10.71;73.96
64230;BME280;50547;49.498;0.092;2023-02-13T19:44:18;1030.49;;;10.69;74.14
64230;BME280;50547;49.498;0.092;2023-02-13T19:46:47;1030.49;;;10.66;74.19
64230;BME280;50547;49.498;0.092;2023-02-13T19:49:16;1030.41;;;10.52;75.00
64230;BME280;50547;49.498;0.092;2023-02-13T19:51:45;1030.47;;;10.48;75.09
64230;BME280;50547;49.498;0.092;2023-02-13T19:54:14;1030.49;;;10.49;74.89
64230;BME280;50547;49.498;0.092;2023-02-13T19:56:43;1030.53;;;10.40;75.30
64230;BME280;50547;49.498;0.092;2023-02-13T19:59:12;1030.43;;;10.39;75.18
64230;BME280;50547;49.498;0.092;2023-02-13T20:01:41;1030.49;;;10.40;75.13
64230;BME280;50547;49.498;0.092;2023-02-13T20:04:10;1030.49;;;10.33;75.45
64230;BME280;50547;49.498;0.092;2023-02-13T20:06:54;1030.53;;;10.40;75.30
64230;BME280;50547;49.498;0.092;2023-02-13T20:09:21;1030.51;;;10.27;75.78
64230;BME280;50547;49.498;0.092;2023-02-13T20:11:50;1030.55;;;10.37;75.23
64230;BME280;50547;49.498;0.092;2023-02-13T20:14:19;1030.53;;;10.33;75.37
64230;BME280;50547;49.498;0.092;2023-02-13T20:16:48;1030.55;;;10.27;75.75
64230;BME280;50547;49.498;0.092;2023-02-13T20:19:17;1030.51;;;10.22;76.08
64230;BME280;50547;49.498;0.092;2023-02-13T20:21:46;1030.51;;;10.21;76.05
64230;BME280;50547;49.498;0.092;2023-02-13T20:24:16;1030.55;;;10.21;76.20
64230;BME280;50547;49.498;0.092;2023-02-13T20:26:45;1030.53;;;10.32;75.53
64230;BME280;50547;49.498;0.092;2023-02-13T20:29:14;1030.55;;;10.30;75.56
64230;BME280;50547;49.498;0.092;2023-02-13T20:31:43;1030.57;;;10.32;75.47
64230;BME280;50547;49.498;0.092;2023-02-13T20:34:12;1030.51;;;10.15;76.40
64230;BME280;50547;49.498;0.092;2023-02-13T20:36:41;1030.53;;;10.11;76.55
64230;BME280;50547;49.498;0.092;2023-02-13T20:39:10;1030.55;;;10.13;76.36
64230;BME280;50547;49.498;0.092;2023-02-13T20:41:39;1030.55;;;10.15;76.16
64230;BME280;50547;49.498;0.092;2023-02-13T20:44:10;1030.57;;;10.08;76.73
64230;BME280;50547;49.498;0.092;2023-02-13T20:46:40;1030.57;;;10.07;76.75
64230;BME280;50547;49.498;0.092;2023-02-13T20:49:10;1030.55;;;9.99;77.04
64230;BME280;50547;49.498;0.092;2023-02-13T20:51:40;1030.57;;;10.02;76.89
64230;BME280;50547;49.498;0.092;2023-02-13T20:54:09;1030.51;;;10.11;76.37
64230;BME280;50547;49.498;0.092;2023-02-13T20:56:38;1030.55;;;10.11;76.45
64230;BME280;50547;49.498;0.092;2023-02-13T20:59:07;1030.53;;;10.19;76.12
64230;BME280;50547;49.498;0.092;2023-02-13T21:01:37;1030.51;;;10.10;76.55
64230;BME280;50547;49.498;0.092;2023-02-13T21:04:06;1030.55;;;10.02;76.92
64230;BME280;50547;49.498;0.092;2023-02-13T21:06:36;1030.55;;;10.11;76.43
64230;BME280;50547;49.498;0.092;2023-02-13T21:09:07;1030.53;;;10.10;76.37
64230;BME280;50547;49.498;0.092;2023-02-13T21:11:39;1030.51;;;10.04;76.64
64230;BME280;50547;49.498;0.092;2023-02-13T21:14:09;1030.49;;;9.88;77.30
64230;BME280;50547;49.498;0.092;2023-02-13T21:16:39;1030.53;;;9.82;77.60
64230;BME280;50547;49.498;0.092;2023-02-13T21:19:12;1030.49;;;9.78;77.58
64230;BME280;50547;49.498;0.092;2023-02-13T21:21:41;1030.49;;;9.71;77.76